createdAt,value
2022-07-25T00:01:20.650Z,55.09
2022-07-25T00:03:45.374Z,55.27
2022-07-25T00:06:13.545Z,55.22
2022-07-25T00:08:38.170Z,55.25
2022-07-25T00:11:04.535Z,55.22
2022-07-25T00:13:30.961Z,55.24
2022-07-25T00:15:57.435Z,55.38
2022-07-25T00:18:23.792Z,55.49
2022-07-25T00:20:50.177Z,55.51
2022-07-25T00:23:16.601Z,55.66
2022-07-25T00:25:42.982Z,55.54
2022-07-25T00:28:09.366Z,55.61
2022-07-25T00:30:35.783Z,55.74
2022-07-25T00:33:02.226Z,55.55
2022-07-25T00:35:28.580Z,55.80
2022-07-25T00:37:54.994Z,55.72
2022-07-25T00:40:21.367Z,55.49
2022-07-25T00:42:47.861Z,55.72
2022-07-25T00:45:14.226Z,56.03
2022-07-25T00:47:40.622Z,55.86
2022-07-25T00:50:07.023Z,55.96
2022-07-25T00:52:33.480Z,55.43
2022-07-25T00:54:59.846Z,55.68
2022-07-25T00:57:26.265Z,55.70
2022-07-25T00:59:52.615Z,55.56
2022-07-25T01:02:19.022Z,55.47
2022-07-25T01:04:45.358Z,55.72
2022-07-25T01:07:11.722Z,55.51
2022-07-25T01:09:38.122Z,55.37
2022-07-25T01:12:04.492Z,55.25
2022-07-25T01:14:30.853Z,55.31
2022-07-25T01:16:57.254Z,55.45
2022-07-25T01:19:23.620Z,55.54
2022-07-25T01:21:50.070Z,55.67
2022-07-25T01:24:16.487Z,55.62
2022-07-25T01:26:42.849Z,55.74
2022-07-25T01:29:09.216Z,55.65
2022-07-25T01:31:35.653Z,55.69
2022-07-25T01:34:02.144Z,55.77
2022-07-25T01:36:28.424Z,55.79
2022-07-25T01:38:54.813Z,55.91
2022-07-25T01:41:22.295Z,55.61
2022-07-25T01:43:47.660Z,55.44
2022-07-25T01:46:14.071Z,55.36
2022-07-25T01:48:40.493Z,55.55
2022-07-25T01:51:06.825Z,55.57
2022-07-25T01:53:33.196Z,55.41
2022-07-25T01:55:59.566Z,55.24
2022-07-25T01:58:26.054Z,55.10
2022-07-25T02:00:52.483Z,55.34
2022-07-25T02:03:18.919Z,55.39
2022-07-25T02:05:45.354Z,55.27
2022-07-25T02:08:11.713Z,55.49
2022-07-25T02:10:38.098Z,55.66
2022-07-25T02:13:04.459Z,55.79
2022-07-25T02:15:30.844Z,56.03
2022-07-25T02:17:57.242Z,55.96
2022-07-25T02:20:23.598Z,55.86
2022-07-25T02:22:49.983Z,55.95
2022-07-25T02:25:16.349Z,56.10
2022-07-25T02:27:42.715Z,56.21
2022-07-25T02:30:09.167Z,56.34
2022-07-25T02:32:35.601Z,56.48
2022-07-25T02:35:02.036Z,56.51
2022-07-25T02:37:28.469Z,56.67
2022-07-25T02:39:54.852Z,56.68
2022-07-25T02:42:21.215Z,56.80
2022-07-25T02:44:47.677Z,57.04
2022-07-25T02:47:14.067Z,57.17
2022-07-25T02:49:40.456Z,57.12
2022-07-25T02:52:06.816Z,57.22
2022-07-25T02:54:33.295Z,57.26
2022-07-25T02:56:59.675Z,57.40
2022-07-25T02:59:26.063Z,57.45
2022-07-25T03:01:52.497Z,57.46
2022-07-25T03:04:18.836Z,57.04
2022-07-25T03:06:45.177Z,56.62
2022-07-25T03:09:11.547Z,56.35
2022-07-25T03:11:37.912Z,56.04
2022-07-25T03:14:04.736Z,55.62
2022-07-25T03:16:30.660Z,55.39
2022-07-25T03:18:57.018Z,54.85
2022-07-25T03:21:23.446Z,54.60
2022-07-25T03:24:03.958Z,54.50
2022-07-25T03:26:16.236Z,54.08
2022-07-25T03:28:42.625Z,53.96
2022-07-25T03:31:08.984Z,53.75
2022-07-25T03:33:35.402Z,53.79
2022-07-25T03:36:01.782Z,53.68
2022-07-25T03:38:28.166Z,53.83
2022-07-25T03:40:54.602Z,53.51
2022-07-25T03:43:21.034Z,53.48
2022-07-25T03:45:47.518Z,53.54
2022-07-25T03:48:13.830Z,53.63
2022-07-25T03:50:40.340Z,53.77
2022-07-25T03:53:06.770Z,54.13
2022-07-25T03:55:33.124Z,54.11
2022-07-25T03:57:59.520Z,54.31
2022-07-25T04:00:25.899Z,54.42
2022-07-25T04:02:52.304Z,54.85
2022-07-25T04:05:18.669Z,55.02
2022-07-25T04:07:45.031Z,55.00
2022-07-25T04:10:11.398Z,54.61
2022-07-25T04:12:37.823Z,54.26
2022-07-25T04:15:04.198Z,53.80
2022-07-25T04:17:30.563Z,53.74
2022-07-25T04:19:56.947Z,53.64
2022-07-25T04:22:23.346Z,53.70
2022-07-25T04:24:49.727Z,53.50
2022-07-25T04:27:16.213Z,53.72
2022-07-25T04:29:42.569Z,53.54
2022-07-25T04:32:08.987Z,53.54
2022-07-25T04:34:35.322Z,53.67
2022-07-25T04:37:01.745Z,53.53
2022-07-25T04:39:28.178Z,53.40
2022-07-25T04:41:54.611Z,53.30
2022-07-25T04:44:21.000Z,53.11
2022-07-25T04:46:47.347Z,52.99
2022-07-25T04:49:13.752Z,55.00
2022-07-25T04:51:40.135Z,55.28
2022-07-25T04:54:06.835Z,56.40
2022-07-25T04:56:33.005Z,53.91
2022-07-25T04:59:04.691Z,54.09
2022-07-25T05:01:25.798Z,53.78
2022-07-25T05:03:52.200Z,54.35
2022-07-25T05:06:18.559Z,56.02
2022-07-25T05:08:44.923Z,54.19
2022-07-25T05:11:11.400Z,54.98
2022-07-25T05:13:37.756Z,54.56
2022-07-25T05:16:04.299Z,54.20
2022-07-25T05:18:30.621Z,55.15
2022-07-25T05:20:56.986Z,56.34
2022-07-25T05:23:23.459Z,58.46
2022-07-25T05:25:49.855Z,58.95
2022-07-25T05:28:16.217Z,59.68
2022-07-25T05:30:42.603Z,57.08
2022-07-25T05:33:08.981Z,55.00
2022-07-25T05:35:35.418Z,53.09
2022-07-25T05:38:01.781Z,53.49
2022-07-25T05:40:28.156Z,52.93
2022-07-25T05:42:57.156Z,54.05
2022-07-25T05:45:20.916Z,51.78
2022-07-25T05:47:47.279Z,51.64
2022-07-25T05:50:13.708Z,51.00
2022-07-25T05:52:40.140Z,52.18
2022-07-25T05:55:06.508Z,49.92
2022-07-25T05:57:32.871Z,50.98
2022-07-25T05:59:59.243Z,49.45
2022-07-25T06:02:25.785Z,48.62
2022-07-25T06:04:52.102Z,48.86
2022-07-25T06:07:18.494Z,48.32
2022-07-25T06:09:44.871Z,47.59
2022-07-25T06:12:11.298Z,47.33
2022-07-25T06:14:37.660Z,47.39
2022-07-25T06:17:04.039Z,47.71
2022-07-25T06:19:30.514Z,47.27
2022-07-25T06:21:56.899Z,46.60
2022-07-25T06:24:23.359Z,47.48
2022-07-25T06:26:49.720Z,45.92
2022-07-25T06:29:16.250Z,45.63
2022-07-25T06:31:42.693Z,44.85
2022-07-25T06:34:09.392Z,44.59
2022-07-25T06:36:35.398Z,44.82
2022-07-25T06:39:01.772Z,44.15
2022-07-25T06:41:28.249Z,44.52
2022-07-25T06:43:54.620Z,44.17
2022-07-25T06:46:21.085Z,43.80
2022-07-25T06:48:47.452Z,43.39
2022-07-25T06:51:13.817Z,43.39
2022-07-25T06:53:40.240Z,42.90
2022-07-25T06:56:06.682Z,43.03
2022-07-25T06:58:33.060Z,42.40
2022-07-25T07:00:59.514Z,42.04
2022-07-25T07:03:26.055Z,41.72
2022-07-25T07:05:52.379Z,41.54
2022-07-25T07:08:18.769Z,41.94
2022-07-25T07:10:45.131Z,41.51
2022-07-25T07:13:11.525Z,41.23
2022-07-25T07:15:37.918Z,41.05
2022-07-25T07:18:04.253Z,40.75
2022-07-25T07:20:30.730Z,40.50
2022-07-25T07:22:57.145Z,40.33
2022-07-25T07:25:23.525Z,40.42
2022-07-25T07:27:49.933Z,40.32
2022-07-25T07:30:22.156Z,39.99
2022-07-25T07:32:42.719Z,39.10
2022-07-25T07:35:09.100Z,38.81
2022-07-25T07:37:40.009Z,38.72
2022-07-25T07:40:01.893Z,38.28
2022-07-25T07:42:28.382Z,38.25
2022-07-25T07:44:54.971Z,38.23
2022-07-25T07:47:21.366Z,37.64
2022-07-25T07:49:50.366Z,37.48
2022-07-25T07:52:14.234Z,37.75
2022-07-25T07:54:40.904Z,37.13
2022-07-25T07:57:07.285Z,37.32
2022-07-25T07:59:33.667Z,37.00
2022-07-25T08:02:00.168Z,36.88
2022-07-25T08:04:26.437Z,36.54
2022-07-25T08:06:52.826Z,37.12
2022-07-25T08:09:19.265Z,36.83
2022-07-25T08:11:45.699Z,36.58
2022-07-25T08:14:12.094Z,36.52
2022-07-25T08:16:38.551Z,36.86
2022-07-25T08:19:04.843Z,36.19
2022-07-25T08:21:31.330Z,35.84
2022-07-25T08:23:57.760Z,35.90
2022-07-25T08:26:24.195Z,35.60
2022-07-25T08:29:04.900Z,35.54
2022-07-25T08:31:16.966Z,35.68
2022-07-25T08:33:43.307Z,35.48
2022-07-25T08:36:09.677Z,35.56
2022-07-25T08:38:36.079Z,35.41
2022-07-25T08:41:02.442Z,35.66
2022-07-25T08:43:28.803Z,35.07
2022-07-25T08:45:55.288Z,34.96
2022-07-25T08:48:21.577Z,34.92
2022-07-25T08:50:47.964Z,35.17
2022-07-25T08:53:32.735Z,35.07
2022-07-25T08:55:40.698Z,34.95
2022-07-25T08:58:07.103Z,35.03
2022-07-25T09:00:33.561Z,34.37
2022-07-25T09:02:59.955Z,34.58
2022-07-25T09:05:26.290Z,34.31
2022-07-25T09:07:52.659Z,34.71
2022-07-25T09:10:19.171Z,34.81
2022-07-25T09:12:45.558Z,34.45
2022-07-25T09:15:12.004Z,34.30
2022-07-25T09:17:38.466Z,34.56
2022-07-25T09:20:04.897Z,34.40
2022-07-25T09:22:31.260Z,33.86
2022-07-25T09:24:57.666Z,33.96
2022-07-25T09:27:24.028Z,33.94
2022-07-25T09:29:50.435Z,34.65
2022-07-25T09:32:16.825Z,34.88
2022-07-25T09:34:43.287Z,35.45
2022-07-25T09:37:09.727Z,35.96
2022-07-25T09:39:36.085Z,36.60
2022-07-25T09:42:02.491Z,36.24
2022-07-25T09:44:28.925Z,36.37
2022-07-25T09:46:55.318Z,36.59
2022-07-25T09:49:21.689Z,36.47
2022-07-25T09:51:48.063Z,36.48
2022-07-25T09:54:14.431Z,35.65
2022-07-25T09:56:40.811Z,35.72
2022-07-25T09:59:07.227Z,35.04
2022-07-25T10:01:33.634Z,34.70
2022-07-25T10:03:59.980Z,33.88
2022-07-25T10:06:26.359Z,33.62
2022-07-25T10:08:52.717Z,33.39
2022-07-25T10:11:19.179Z,33.03
2022-07-25T10:13:45.563Z,32.65
2022-07-25T10:16:11.944Z,32.48
2022-07-25T10:18:38.314Z,32.63
2022-07-25T10:21:22.958Z,32.98
2022-07-25T10:23:31.036Z,33.28
2022-07-25T10:25:57.426Z,32.88
2022-07-25T10:28:23.783Z,32.87
2022-07-25T10:30:50.356Z,32.50
2022-07-25T10:33:16.691Z,32.86
2022-07-25T10:35:43.090Z,32.11
2022-07-25T10:38:09.488Z,31.98
2022-07-25T10:40:35.875Z,32.40
2022-07-25T10:43:02.254Z,32.25
2022-07-25T10:45:28.727Z,32.21
2022-07-25T10:47:55.107Z,32.32
2022-07-25T10:50:34.848Z,32.21
2022-07-25T10:52:47.985Z,32.44
2022-07-25T10:55:14.365Z,32.12
2022-07-25T10:57:54.949Z,32.26
2022-07-25T11:00:07.117Z,31.51
2022-07-25T11:02:33.562Z,31.27
2022-07-25T11:04:59.847Z,30.87
2022-07-25T11:07:26.309Z,30.94
2022-07-25T11:09:52.714Z,31.46
2022-07-25T11:12:19.181Z,31.27
2022-07-25T11:14:45.546Z,31.48
2022-07-25T11:17:11.983Z,31.66
2022-07-25T11:19:38.318Z,32.39
2022-07-25T11:22:04.702Z,32.72
2022-07-25T11:24:31.087Z,32.62
2022-07-25T11:26:57.466Z,32.50
2022-07-25T11:29:23.911Z,32.21
2022-07-25T11:31:50.327Z,31.25
2022-07-25T11:34:16.659Z,31.77
2022-07-25T11:36:43.058Z,31.89
2022-07-25T11:39:11.420Z,31.47
2022-07-25T11:41:35.971Z,31.43
2022-07-25T11:44:02.340Z,31.51
2022-07-25T11:46:28.783Z,31.99
2022-07-25T11:48:55.230Z,31.66
2022-07-25T11:51:21.523Z,31.44
2022-07-25T11:53:47.897Z,31.31
2022-07-25T11:56:39.614Z,31.18
2022-07-25T11:58:40.650Z,30.94
2022-07-25T12:01:07.017Z,30.84
2022-07-25T12:03:33.440Z,30.84
2022-07-25T12:05:59.891Z,30.50
2022-07-25T12:08:26.271Z,30.41
2022-07-25T12:10:52.636Z,30.20
2022-07-25T12:13:19.088Z,29.98
2022-07-25T12:15:45.463Z,30.00
2022-07-25T12:18:11.826Z,29.89
2022-07-25T12:20:38.251Z,29.74
2022-07-25T12:23:04.725Z,29.95
2022-07-25T12:25:31.316Z,30.09
2022-07-25T12:27:57.466Z,30.00
2022-07-25T12:30:23.870Z,29.93
2022-07-25T12:32:50.256Z,29.94
2022-07-25T12:35:16.638Z,29.92
2022-07-25T12:37:43.104Z,29.60
2022-07-25T12:40:09.504Z,29.79
2022-07-25T12:42:36.226Z,29.92
2022-07-25T12:45:02.584Z,30.25
2022-07-25T12:47:28.949Z,30.16
2022-07-25T12:49:55.376Z,29.33
2022-07-25T12:52:21.914Z,29.35
2022-07-25T12:54:48.346Z,29.22
2022-07-25T12:57:14.712Z,29.35
2022-07-25T12:59:41.100Z,29.51
2022-07-25T13:02:07.595Z,29.85
2022-07-25T13:04:33.905Z,29.77
2022-07-25T13:07:00.311Z,29.97
2022-07-25T13:09:26.731Z,29.91
2022-07-25T13:11:53.167Z,29.59
2022-07-25T13:14:19.604Z,29.59
2022-07-25T13:16:46.113Z,30.30
2022-07-25T13:19:12.410Z,30.39
2022-07-25T13:21:38.818Z,30.09
2022-07-25T13:24:05.238Z,29.96
2022-07-25T13:26:31.624Z,30.38
2022-07-25T13:28:59.927Z,30.31
2022-07-25T13:31:24.416Z,30.54
2022-07-25T13:33:50.787Z,30.53
2022-07-25T13:36:17.155Z,30.61
2022-07-25T13:38:43.627Z,30.59
2022-07-25T13:41:10.061Z,30.22
2022-07-25T13:43:36.446Z,30.27
2022-07-25T13:46:05.040Z,30.30
2022-07-25T13:48:31.588Z,30.43
2022-07-25T13:50:57.693Z,30.37
2022-07-25T13:53:29.498Z,30.16
2022-07-25T13:55:50.466Z,30.20
2022-07-25T13:58:16.939Z,29.70
2022-07-25T14:00:43.415Z,29.74
2022-07-25T14:03:09.672Z,30.06
2022-07-25T14:05:36.055Z,30.16
2022-07-25T14:08:02.464Z,29.52
2022-07-25T14:10:28.829Z,30.72
2022-07-25T14:12:55.201Z,31.78
2022-07-25T14:15:21.590Z,31.92
2022-07-25T14:17:47.995Z,31.96
2022-07-25T14:20:14.377Z,32.58
2022-07-25T14:22:40.850Z,31.48
2022-07-25T14:25:07.247Z,32.19
2022-07-25T14:27:33.626Z,32.27
2022-07-25T14:30:00.053Z,32.40
2022-07-25T14:32:26.492Z,32.76
2022-07-25T14:34:52.915Z,33.05
2022-07-25T14:37:19.283Z,33.05
2022-07-25T14:39:45.684Z,32.65
2022-07-25T14:42:12.117Z,32.48
2022-07-25T14:44:38.484Z,32.35
2022-07-25T14:47:08.964Z,33.60
2022-07-25T14:49:31.275Z,33.39
2022-07-25T14:51:57.753Z,33.20
2022-07-25T14:54:24.158Z,33.46
2022-07-25T14:56:50.519Z,33.99
2022-07-25T14:59:16.886Z,34.66
2022-07-25T15:01:43.265Z,33.87
2022-07-25T15:04:09.668Z,34.07
2022-07-25T15:06:36.033Z,33.55
2022-07-25T15:09:02.422Z,34.42
2022-07-25T15:11:28.792Z,33.92
2022-07-25T15:13:55.163Z,34.94
2022-07-25T15:16:21.587Z,34.92
2022-07-25T15:19:14.618Z,34.34
2022-07-25T15:21:14.299Z,34.94
2022-07-25T15:23:40.684Z,34.44
2022-07-25T15:26:07.047Z,34.92
2022-07-25T15:28:33.439Z,35.26
2022-07-25T15:30:59.913Z,35.27
2022-07-25T15:33:26.202Z,34.90
2022-07-25T15:35:52.567Z,34.91
2022-07-25T15:38:19.151Z,35.18
2022-07-25T15:40:45.488Z,35.57
2022-07-25T15:43:11.896Z,36.25
2022-07-25T15:45:38.388Z,36.41
2022-07-25T15:48:04.742Z,36.46
2022-07-25T15:50:31.151Z,35.37
2022-07-25T15:52:57.551Z,36.17
2022-07-25T15:55:23.922Z,36.40
2022-07-25T15:57:50.317Z,36.56
2022-07-25T16:00:16.746Z,36.33
2022-07-25T16:02:43.128Z,36.31
2022-07-25T16:05:09.535Z,36.57
2022-07-25T16:07:35.903Z,36.80
2022-07-25T16:10:02.300Z,37.15
2022-07-25T16:12:29.115Z,37.00
2022-07-25T16:14:55.498Z,37.22
2022-07-25T16:17:21.986Z,37.56
2022-07-25T16:19:48.420Z,37.55
2022-07-25T16:22:14.781Z,37.80
2022-07-25T16:24:41.176Z,38.03
2022-07-25T16:27:07.621Z,37.85
2022-07-25T16:29:33.993Z,38.09
2022-07-25T16:32:00.478Z,38.20
2022-07-25T16:34:29.210Z,38.33
2022-07-25T16:36:53.268Z,38.12
2022-07-25T16:39:19.625Z,38.39
2022-07-25T16:41:46.109Z,38.52
2022-07-25T16:44:12.541Z,38.67
2022-07-25T16:46:38.990Z,39.19
2022-07-25T16:49:05.616Z,39.21
2022-07-25T16:51:35.342Z,39.55
2022-07-25T16:53:58.119Z,39.94
2022-07-25T16:56:24.485Z,40.09
2022-07-25T16:58:50.870Z,40.09
2022-07-25T17:01:17.358Z,40.54
2022-07-25T17:03:43.755Z,40.76
2022-07-25T17:06:10.115Z,40.66
2022-07-25T17:08:36.518Z,40.79
2022-07-25T17:11:02.904Z,41.01
2022-07-25T17:13:29.269Z,41.13
2022-07-25T17:15:55.782Z,41.15
2022-07-25T17:18:22.138Z,41.39
2022-07-25T17:20:48.572Z,41.65
2022-07-25T17:23:14.922Z,41.73
2022-07-25T17:25:41.310Z,41.71
2022-07-25T17:28:07.745Z,41.55
2022-07-25T17:30:34.132Z,41.41
2022-07-25T17:33:00.496Z,41.42
2022-07-25T17:35:26.929Z,41.09
2022-07-25T17:37:53.276Z,41.58
2022-07-25T17:40:19.670Z,41.88
2022-07-25T17:42:46.121Z,42.06
2022-07-25T17:45:12.511Z,41.87
2022-07-25T17:47:38.897Z,41.90
2022-07-25T17:50:05.261Z,41.91
2022-07-25T17:52:31.681Z,42.11
2022-07-25T17:54:58.047Z,41.94
2022-07-25T17:57:24.431Z,42.18
2022-07-25T17:59:50.794Z,42.31
2022-07-25T18:02:17.158Z,42.44
2022-07-25T18:04:43.553Z,42.55
2022-07-25T18:07:09.931Z,42.65
2022-07-25T18:09:36.289Z,42.66
2022-07-25T18:12:02.690Z,43.07
2022-07-25T18:14:29.085Z,43.80
2022-07-25T18:16:55.444Z,44.01
2022-07-25T18:19:21.831Z,44.06
2022-07-25T18:21:48.211Z,44.21
2022-07-25T18:24:14.659Z,44.11
2022-07-25T18:26:41.052Z,44.26
2022-07-25T18:29:07.517Z,44.25
2022-07-25T18:31:33.983Z,44.16
2022-07-25T18:34:00.285Z,43.97
2022-07-25T18:36:26.664Z,43.95
2022-07-25T18:38:53.073Z,44.13
2022-07-25T18:41:29.363Z,44.30
2022-07-25T18:43:45.822Z,43.98
2022-07-25T18:46:12.242Z,43.68
2022-07-25T18:48:38.669Z,44.07
2022-07-25T18:51:05.124Z,44.54
2022-07-25T18:53:31.549Z,45.09
2022-07-25T18:55:57.917Z,45.00
2022-07-25T18:58:24.320Z,44.65
2022-07-25T19:00:50.684Z,45.01
2022-07-25T19:03:17.094Z,45.11
2022-07-25T19:05:43.619Z,45.06
2022-07-25T19:08:09.873Z,44.91
2022-07-25T19:10:36.236Z,45.20
2022-07-25T19:13:02.604Z,45.12
2022-07-25T19:15:29.020Z,45.17
2022-07-25T19:17:55.378Z,45.25
2022-07-25T19:20:21.761Z,45.06
2022-07-25T19:22:48.122Z,45.27
2022-07-25T19:25:14.510Z,45.66
2022-07-25T19:27:40.896Z,45.58
2022-07-25T19:30:07.257Z,45.51
2022-07-25T19:32:33.657Z,45.78
2022-07-25T19:35:00.052Z,46.13
2022-07-25T19:37:26.523Z,46.16
2022-07-25T19:39:52.899Z,46.32
2022-07-25T19:42:19.294Z,46.08
2022-07-25T19:44:45.724Z,45.64
2022-07-25T19:47:12.182Z,45.73
2022-07-25T19:49:38.479Z,46.07
2022-07-25T19:52:04.908Z,46.39
2022-07-25T19:54:31.267Z,46.60
2022-07-25T19:56:57.703Z,46.79
2022-07-25T19:59:24.206Z,46.64
2022-07-25T20:01:50.697Z,46.71
2022-07-25T20:04:17.012Z,46.83
2022-07-25T20:06:43.406Z,46.91
2022-07-25T20:09:10.200Z,46.93
2022-07-25T20:11:36.206Z,46.69
2022-07-25T20:14:02.553Z,47.26
2022-07-25T20:16:28.966Z,47.43
2022-07-25T20:18:55.294Z,47.34
2022-07-25T20:21:21.703Z,47.04
2022-07-25T20:23:48.082Z,47.61
2022-07-25T20:26:14.446Z,47.19
2022-07-25T20:28:40.866Z,47.93
2022-07-25T20:31:07.400Z,47.73
2022-07-25T20:33:33.716Z,47.66
2022-07-25T20:36:00.086Z,47.86
2022-07-25T20:38:26.446Z,48.17
2022-07-25T20:40:52.810Z,47.94
2022-07-25T20:43:19.197Z,48.12
2022-07-25T20:45:45.599Z,48.70
2022-07-25T20:48:12.120Z,49.29
2022-07-25T20:50:38.488Z,50.12
2022-07-25T20:53:04.859Z,52.89
2022-07-25T20:55:31.367Z,55.94
2022-07-25T20:57:57.761Z,55.83
2022-07-25T21:00:24.124Z,56.48
2022-07-25T21:02:50.634Z,56.09
2022-07-25T21:05:16.995Z,55.83
2022-07-25T21:07:43.354Z,56.27
2022-07-25T21:10:09.751Z,56.43
2022-07-25T21:12:36.180Z,55.88
2022-07-25T21:15:02.610Z,56.25
2022-07-25T21:17:28.973Z,56.84
2022-07-25T21:19:55.341Z,54.92
2022-07-25T21:22:21.731Z,55.53
2022-07-25T21:24:48.143Z,55.30
2022-07-25T21:27:14.495Z,55.23
2022-07-25T21:29:40.921Z,55.16
2022-07-25T21:32:07.326Z,55.04
2022-07-25T21:34:33.640Z,52.91
2022-07-25T21:37:00.033Z,55.01
2022-07-25T21:39:26.380Z,53.27
2022-07-25T21:41:55.403Z,55.03
2022-07-25T21:44:19.204Z,52.66
2022-07-25T21:46:45.623Z,54.47
2022-07-25T21:49:12.809Z,53.71
2022-07-25T21:51:40.228Z,52.35
2022-07-25T21:54:04.734Z,53.94
2022-07-25T21:56:31.162Z,55.69
2022-07-25T21:58:57.536Z,54.16
2022-07-25T22:01:23.971Z,55.58
2022-07-25T22:03:50.396Z,53.92
2022-07-25T22:06:16.789Z,53.62
2022-07-25T22:08:43.140Z,54.64
2022-07-25T22:11:20.678Z,54.00
2022-07-25T22:13:38.019Z,54.07
2022-07-25T22:16:02.455Z,54.79
2022-07-25T22:18:28.754Z,55.78
2022-07-25T22:20:55.132Z,55.00
2022-07-25T22:23:21.514Z,55.72
2022-07-25T22:25:47.897Z,56.42
2022-07-25T22:28:14.523Z,57.05
2022-07-25T22:30:40.640Z,57.21
2022-07-25T22:33:07.011Z,57.65
2022-07-25T22:35:33.380Z,57.77
2022-07-25T22:37:59.803Z,57.92
2022-07-25T22:40:26.232Z,59.50
2022-07-25T22:42:52.598Z,59.41
2022-07-25T22:45:18.982Z,57.88
2022-07-25T22:47:45.357Z,57.00
2022-07-25T22:50:11.718Z,56.91
2022-07-25T22:52:38.129Z,56.10
2022-07-25T22:55:04.489Z,56.53
2022-07-25T22:57:37.568Z,55.82
2022-07-25T22:59:57.394Z,56.60
2022-07-25T23:02:23.831Z,57.77
2022-07-25T23:04:50.202Z,57.42
2022-07-25T23:07:16.613Z,56.29
2022-07-25T23:09:42.996Z,58.00
2022-07-25T23:12:09.363Z,58.45
2022-07-25T23:14:35.791Z,58.38
2022-07-25T23:17:02.281Z,58.12
2022-07-25T23:19:28.657Z,58.43
2022-07-25T23:21:55.015Z,58.58
2022-07-25T23:24:21.424Z,58.14
2022-07-25T23:26:47.794Z,58.14
2022-07-25T23:29:14.168Z,57.45
2022-07-25T23:31:40.680Z,57.57
2022-07-25T23:34:07.047Z,58.35
2022-07-25T23:36:33.392Z,58.99
2022-07-25T23:38:59.912Z,58.86
2022-07-25T23:41:26.291Z,58.99
2022-07-25T23:43:59.602Z,58.05
2022-07-25T23:46:22.468Z,57.31
2022-07-25T23:48:45.556Z,58.69
2022-07-25T23:51:11.885Z,58.61
2022-07-25T23:53:38.271Z,57.75
2022-07-25T23:56:04.634Z,58.10
2022-07-25T23:58:30.985Z,58.75
